Time;durP1;ratioP1;P1;durP2;ratioP2;P2;SDS_P1;SDS_P2;PMS_P1;PMS_P2;Temp;Humidity;BMP_temperature;BMP_pressure;BME280_temperature;BME280_humidity;BME280_pressure;Samples;Min_cycle;Max_cycle;Signal;HPM_P1;HPM_P2
2021/11/01 00:00:30;;;;;;;106.70;60.10;;;;;;;1.88;72.76;100429.22;1447601;89;21669;-89
2021/11/01 00:02:57;;;;;;;109.53;58.57;;;;;;;1.87;72.97;100431.44;1459061;89;22863;-89
2021/11/01 00:05:25;;;;;;;107.43;54.95;;;;;;;1.86;72.49;100429.77;1454240;89;21986;-88
2021/11/01 00:07:53;;;;;;;102.83;56.73;;;;;;;1.85;72.71;100420.27;1462223;89;21369;-88
2021/11/01 00:10:21;;;;;;;100.97;54.35;;;;;;;1.84;72.72;100422.48;1458214;89;21715;-89
2021/11/01 00:12:48;;;;;;;99.00;54.85;;;;;;;1.83;72.33;100419.52;1453894;89;21825;-88
2021/11/01 00:15:15;;;;;;;92.20;54.00;;;;;;;1.78;72.24;100416.73;1452195;89;21441;-88
2021/11/01 00:17:42;;;;;;;95.85;53.48;;;;;;;1.80;72.43;100418.77;1465102;89;21470;-88
2021/11/01 00:20:10;;;;;;;96.97;54.13;;;;;;;1.78;73.11;100418.47;1459834;89;21448;-88
2021/11/01 00:22:39;;;;;;;98.85;57.90;;;;;;;1.75;72.99;100418.19;1459107;89;21352;-88
2021/11/01 00:25:10;;;;;;;101.50;55.05;;;;;;;1.76;72.72;100419.89;1464810;89;21414;-90
2021/11/01 00:27:39;;;;;;;98.70;54.98;;;;;;;1.77;73.12;100421.55;1457919;89;21404;-89
2021/11/01 00:30:10;;;;;;;102.05;57.27;;;;;;;1.73;72.90;100420.07;1455428;89;22500;-90
2021/11/01 00:32:39;;;;;;;97.80;57.40;;;;;;;1.71;72.30;100415.88;1449515;89;21317;-89
2021/11/01 00:35:10;;;;;;;94.30;52.20;;;;;;;1.70;72.92;100417.65;1458972;89;21413;-89
2021/11/01 00:37:37;;;;;;;87.22;48.95;;;;;;;1.68;73.16;100445.59;1452743;89;21657;-91
2021/11/01 00:40:07;;;;;;;90.42;50.28;;;;;;;1.61;75.55;100436.42;1470737;89;21555;-90
2021/11/01 00:42:35;;;;;;;78.67;43.80;;;;;;;1.65;75.43;100427.51;1447321;88;21375;-90
2021/11/01 00:45:03;;;;;;;74.90;42.58;;;;;;;1.76;77.32;100442.06;1466245;88;23540;-93
2021/11/01 00:47:30;;;;;;;72.00;40.23;;;;;;;1.87;77.56;100431.44;1459690;89;21613;-91
2021/11/01 00:49:57;;;;;;;72.12;40.52;;;;;;;2.01;78.10;100423.17;1459782;89;21454;-91
2021/11/01 00:52:30;;;;;;;67.17;37.58;;;;;;;2.13;78.54;100424.20;1451617;89;21324;-90
2021/11/01 00:55:03;;;;;;;61.23;37.57;;;;;;;2.24;78.47;100421.77;1459206;88;21618;-90
2021/11/01 00:57:31;;;;;;;56.40;35.20;;;;;;;2.36;77.81;100419.30;1448808;89;23123;-90
2021/11/01 00:59:59;;;;;;;60.52;34.60;;;;;;;2.49;77.52;100421.54;1464752;88;22054;-90
2021/11/01 01:02:32;;;;;;;70.50;36.03;;;;;;;2.60;77.78;100417.78;1469265;88;21346;-90
2021/11/01 01:05:00;;;;;;;53.17;34.17;;;;;;;2.67;77.87;100407.30;1484097;88;23251;-91
2021/11/01 01:07:27;;;;;;;57.80;35.27;;;;;;;2.76;77.97;100409.80;1425663;91;22549;-90
2021/11/01 01:09:56;;;;;;;56.93;34.13;;;;;;;2.83;77.13;100409.79;1475752;87;22564;-91
2021/11/01 01:12:24;;;;;;;63.40;37.87;;;;;;;2.89;77.29;100404.16;1483051;87;21498;-90
2021/11/01 01:14:57;;;;;;;60.43;34.60;;;;;;;2.94;77.25;100407.80;1422569;91;21788;-90
2021/11/01 01:17:21;;;;;;;55.63;35.40;;;;;;;3.01;76.66;100414.30;1452824;89;22737;-91
2021/11/01 01:19:58;;;;;;;57.50;34.57;;;;;;;3.05;77.10;100404.47;1448845;89;21561;-90
2021/11/01 01:22:28;;;;;;;52.70;33.67;;;;;;;3.09;76.24;100404.18;1442943;89;22616;-90
2021/11/01 01:24:49;;;;;;;59.17;37.37;;;;;;;3.14;75.65;100399.97;1441577;89;21449;-91
2021/11/01 01:27:16;;;;;;;62.60;37.03;;;;;;;3.13;75.20;100396.48;1450830;89;22563;-90
2021/11/01 01:29:44;;;;;;;61.53;37.00;;;;;;;3.13;74.76;100399.10;1465012;89;23093;-89
2021/11/01 01:32:11;;;;;;;64.30;36.40;;;;;;;3.09;74.57;100387.18;1450679;89;21597;-89
2021/11/01 01:34:40;;;;;;;62.83;36.40;;;;;;;3.07;74.29;100388.22;1453856;89;21650;-88
2021/11/01 01:37:07;;;;;;;54.87;33.80;;;;;;;3.03;73.98;100389.37;1457220;89;21473;-89
2021/11/01 01:39:34;;;;;;;52.43;32.40;;;;;;;2.98;73.92;100392.27;1458089;89;22647;-89
2021/11/01 01:42:03;;;;;;;58.83;33.93;;;;;;;2.93;74.00;100393.03;1457643;89;21442;-89
2021/11/01 01:44:33;;;;;;;50.57;33.37;;;;;;;2.87;74.00;100386.89;1464977;89;21561;-88
2021/11/01 01:47:00;;;;;;;59.43;35.50;;;;;;;2.85;73.94;100390.94;1478800;88;22475;-88
2021/11/01 01:49:27;;;;;;;62.00;32.67;;;;;;;2.80;74.24;100381.23;1483983;88;21359;-89
2021/11/01 01:51:54;;;;;;;61.53;37.40;;;;;;;2.79;74.45;100378.70;1484844;88;21520;-88
2021/11/01 01:54:23;;;;;;;54.77;35.23;;;;;;;2.74;74.70;100378.19;1450807;88;21932;-88
2021/11/01 01:56:50;;;;;;;54.30;33.00;;;;;;;2.73;74.73;100371.27;1495131;87;22700;-87
2021/11/01 01:59:19;;;;;;;53.40;32.40;;;;;;;2.70;74.93;100361.40;1477783;87;21580;-87
2021/11/01 02:01:48;;;;;;;57.03;36.00;;;;;;;2.66;74.71;100367.74;1497380;87;21563;-87
2021/11/01 02:04:20;;;;;;;57.27;35.07;;;;;;;2.63;74.98;100367.11;1437654;90;22480;-87
2021/11/01 02:07:28;;;;;;;57.60;33.90;;;;;;;2.63;74.86;100362.72;1478914;88;22711;-87
2021/11/01 02:10:13;;;;;;;60.20;33.27;;;;;;;2.62;74.72;100366.28;1477319;88;21669;-86
2021/11/01 02:12:53;;;;;;;58.30;35.83;;;;;;;2.58;74.74;100360.02;1480604;88;21709;-88
2021/11/01 02:15:38;;;;;;;53.37;34.70;;;;;;;2.52;75.13;100357.34;1482553;88;22563;-87
2021/11/01 02:18:07;;;;;;;57.77;36.17;;;;;;;2.47;74.73;100358.09;1484658;88;21596;-88
2021/11/01 02:21:15;;;;;;;63.20;35.93;;;;;;;2.48;74.93;100354.56;1481007;87;21631;-88
2021/11/01 02:24:00;;;;;;;59.43;35.03;;;;;;;2.50;75.00;100352.66;1487986;88;21602;-89
2021/11/01 02:26:28;;;;;;;56.67;33.97;;;;;;;2.49;74.95;100354.45;1481309;87;21802;-89
2021/11/01 02:28:56;;;;;;;61.23;34.60;;;;;;;2.49;74.89;100349.69;1480959;87;21564;-90
2021/11/01 02:31:25;;;;;;;62.00;33.53;;;;;;;2.50;74.84;100356.59;1484585;87;22570;-90
2021/11/01 02:33:53;;;;;;;53.47;33.50;;;;;;;2.49;74.77;100347.91;1487067;87;21628;-88
2021/11/01 02:36:21;;;;;;;52.20;31.50;;;;;;;2.55;74.90;100349.77;1476504;87;21639;-88
2021/11/01 02:38:50;;;;;;;50.97;32.30;;;;;;;2.52;74.56;100352.11;1478580;88;21501;-88
2021/11/01 02:41:25;;;;;;;54.73;34.80;;;;;;;2.47;74.46;100346.33;1480640;87;21399;-90
2021/11/01 02:43:55;;;;;;;56.97;34.30;;;;;;;2.44;74.31;100342.61;1457517;88;21673;-90
2021/11/01 02:46:26;;;;;;;59.25;32.70;;;;;;;2.42;74.19;100345.34;1480526;88;21586;-89
2021/11/01 02:48:54;;;;;;;53.05;33.35;;;;;;;2.39;74.11;100342.09;1431195;90;21368;-90
2021/11/01 02:51:24;;;;;;;50.60;30.10;;;;;;;2.36;73.96;100343.56;1485897;87;22367;-91
2021/11/01 02:53:54;;;;;;;51.97;32.90;;;;;;;2.31;74.02;100334.73;1437123;90;21479;-91
2021/11/01 02:56:22;;;;;;;56.27;33.27;;;;;;;2.30;73.93;100331.73;1481909;87;22111;-91
2021/11/01 02:58:49;;;;;;;55.57;33.07;;;;;;;2.31;73.90;100331.28;1472272;88;21579;-92
2021/11/01 03:01:19;;;;;;;51.77;30.20;;;;;;;2.23;73.35;100331.75;1498781;87;22676;-90
2021/11/01 03:03:46;;;;;;;52.17;32.27;;;;;;;2.14;73.00;100329.25;1483445;87;22016;-88
2021/11/01 03:06:22;;;;;;;55.00;32.53;;;;;;;2.08;73.00;100328.81;1501815;87;21777;-88
2021/11/01 03:08:54;;;;;;;55.00;31.70;;;;;;;2.00;72.94;100331.89;1461185;87;21695;-87
2021/11/01 03:11:24;;;;;;;56.88;34.50;;;;;;;1.86;73.35;100330.59;1481639;87;22363;-87
2021/11/01 03:13:51;;;;;;;51.33;29.48;;;;;;;1.78;73.25;100331.05;1497657;87;21419;-87
2021/11/01 03:16:22;;;;;;;49.00;30.65;;;;;;;1.72;73.25;100324.44;1500356;87;21317;-87
2021/11/01 03:19:03;;;;;;;52.27;30.48;;;;;;;1.66;73.35;100322.20;1483926;87;21570;-88
2021/11/01 03:21:33;;;;;;;52.13;31.02;;;;;;;1.59;73.59;100319.61;1496555;87;21553;-88
2021/11/01 03:24:03;;;;;;;59.85;33.33;;;;;;;1.49;73.65;100319.78;1451551;90;22469;-87
2021/11/01 03:26:32;;;;;;;54.13;33.17;;;;;;;1.46;73.90;100319.97;1491443;87;21974;-90
2021/11/01 03:29:04;;;;;;;53.87;31.42;;;;;;;1.44;74.00;100329.64;1499541;87;21557;-90
2021/11/01 03:31:34;;;;;;;53.28;33.23;;;;;;;1.39;74.35;100321.28;1504780;87;21323;-88
2021/11/01 03:34:03;;;;;;;52.78;31.33;;;;;;;1.38;74.66;100324.80;1494245;87;21648;-89
2021/11/01 03:36:33;;;;;;;57.48;32.15;;;;;;;1.37;74.60;100323.12;1474543;87;22491;-88
2021/11/01 03:39:03;;;;;;;51.98;31.65;;;;;;;1.35;74.24;100321.46;1478134;87;21610;-88
2021/11/01 03:41:32;;;;;;;48.42;31.00;;;;;;;1.34;73.98;100317.63;1501846;87;22424;-88
2021/11/01 03:44:05;;;;;;;55.43;33.90;;;;;;;1.33;74.00;100315.96;1473640;87;22549;-89
2021/11/01 03:46:51;;;;;;;52.13;32.23;;;;;;;1.27;74.33;100319.77;1500636;87;21353;-89
2021/11/01 03:49:11;;;;;;;55.38;34.43;;;;;;;1.21;74.48;100319.27;1496590;86;22092;-90
2021/11/01 03:54:30;;;;;;;58.73;33.42;;;;;;;1.13;74.77;100310.63;1445039;90;21391;-89
2021/11/01 03:56:58;;;;;;;55.60;33.30;;;;;;;1.11;74.93;100309.86;1450002;88;21481;-90
2021/11/01 03:59:29;;;;;;;54.73;33.95;;;;;;;1.11;74.81;100309.86;1475244;88;21398;-92
2021/11/01 04:01:59;;;;;;;68.72;33.38;;;;;;;1.07;75.12;100307.08;1466289;88;21617;-91
2021/11/01 04:04:26;;;;;;;54.85;33.60;;;;;;;1.01;75.26;100296.55;1465680;88;21562;-90
2021/11/01 04:06:54;;;;;;;60.10;33.05;;;;;;;0.99;75.05;100296.25;1460184;88;21576;-89
2021/11/01 04:09:21;;;;;;;56.23;32.90;;;;;;;0.97;75.09;100295.50;1470779;88;21549;-90
2021/11/01 04:11:52;;;;;;;59.10;33.88;;;;;;;0.99;75.00;100297.55;1471262;88;21940;-90
2021/11/01 04:14:24;;;;;;;56.07;32.03;;;;;;;1.00;75.08;100304.44;1467478;88;21364;-89
2021/11/01 04:17:01;;;;;;;55.28;33.83;;;;;;;0.96;75.21;100296.44;1454078;88;21713;-89
2021/11/01 04:19:43;;;;;;;58.78;37.38;;;;;;;0.95;75.13;100290.83;1471827;88;21341;-88
2021/11/01 04:22:04;;;;;;;56.95;34.20;;;;;;;0.90;75.02;100286.73;1467419;88;21886;-88
2021/11/01 04:24:32;;;;;;;62.55;36.95;;;;;;;0.86;75.36;100289.16;1448748;88;21393;-88
2021/11/01 04:27:00;;;;;;;58.35;36.58;;;;;;;0.81;75.22;100285.97;1463772;88;22302;-89
2021/11/01 04:29:31;;;;;;;55.63;34.13;;;;;;;0.80;75.14;100290.79;1452362;90;22323;-88
2021/11/01 04:32:08;;;;;;;57.58;36.20;;;;;;;0.78;75.17;100290.06;1456846;89;21575;-88
2021/11/01 04:34:35;;;;;;;61.85;37.48;;;;;;;0.77;75.25;100290.97;1463657;89;23138;-88
2021/11/01 04:37:01;;;;;;;54.13;34.33;;;;;;;0.74;75.95;100288.55;1466742;89;21561;-88
2021/11/01 04:39:38;;;;;;;60.05;34.88;;;;;;;0.73;75.83;100282.97;1461297;89;21568;-88
2021/11/01 04:55:24;;;;;;;75.62;45.88;;;;;;;0.77;75.30;100281.02;1460912;89;21443;-89
2021/11/01 04:57:52;;;;;;;76.15;44.00;;;;;;;0.74;75.05;100278.13;1458648;89;21605;-88
2021/11/01 05:00:19;;;;;;;68.78;41.50;;;;;;;0.75;74.87;100273.75;1466518;89;21914;-88
2021/11/01 05:02:53;;;;;;;68.75;38.58;;;;;;;0.75;74.64;100273.30;1459662;89;21427;-88
2021/11/01 05:05:17;;;;;;;69.95;39.63;;;;;;;0.78;74.52;100270.99;1443924;89;22713;-89
2021/11/01 05:07:47;;;;;;;70.83;38.73;;;;;;;0.78;74.67;100273.59;1467573;89;22425;-88
2021/11/01 05:10:24;;;;;;;141.82;61.58;;;;;;;0.74;74.70;100276.81;1462741;89;22388;-89
2021/11/01 05:12:44;;;;;;;155.32;70.25;;;;;;;0.72;74.84;100273.48;1458158;89;21678;-88
2021/11/01 05:20:27;;;;;;;110.03;52.43;;;;;;;0.70;75.21;100270.59;1424412;89;21716;-86
2021/11/01 05:25:31;;;;;;;72.05;39.98;;;;;;;0.60;75.46;100270.26;1459225;89;21561;-87
2021/11/01 05:30:42;;;;;;;129.03;62.25;;;;;;;0.56;75.41;100275.28;1456792;89;21562;-88
2021/11/01 05:35:46;;;;;;;132.20;49.53;;;;;;;0.57;75.97;100270.44;1454090;89;21474;-95
2021/11/01 05:38:20;;;;;;;114.15;54.65;;;;;;;0.58;75.76;100272.97;1454275;89;21429;-94
2021/11/01 05:40:49;;;;;;;110.92;48.38;;;;;;;0.61;75.89;100271.96;1461935;89;21619;-91
2021/11/01 05:43:16;;;;;;;104.25;48.42;;;;;;;0.64;75.72;100273.09;1460732;89;21538;-90
2021/11/01 05:45:43;;;;;;;83.78;43.55;;;;;;;0.68;75.48;100268.06;1459458;89;21619;-90
2021/11/01 05:48:12;;;;;;;102.07;51.33;;;;;;;0.71;75.18;100267.05;1457600;89;21568;-90
2021/11/01 05:50:39;;;;;;;100.58;54.18;;;;;;;0.76;75.05;100264.55;1446904;89;21539;-90
2021/11/01 05:53:10;;;;;;;136.62;65.55;;;;;;;0.76;75.06;100272.37;1473528;89;21904;-95
2021/11/01 05:55:48;;;;;;;161.50;75.80;;;;;;;0.79;75.24;100268.28;1445438;89;21369;-94
2021/11/01 05:58:33;;;;;;;159.80;73.45;;;;;;;0.82;75.63;100270.70;1445269;88;21442;-94
2021/11/01 06:03:44;;;;;;;83.05;44.67;;;;;;;0.94;75.59;100265.70;1449417;89;21353;-96
2021/11/01 06:06:28;;;;;;;55.83;32.78;;;;;;;1.02;75.46;100273.45;1474239;89;21522;-93
2021/11/01 06:14:16;;;;;;;74.73;43.30;;;;;;;1.32;75.38;100279.92;1467454;88;21353;-93
2021/11/01 06:16:43;;;;;;;65.30;40.10;;;;;;;1.45;75.55;100279.18;1427129;91;22640;-93
2021/11/01 06:19:11;;;;;;;61.63;36.90;;;;;;;1.54;75.63;100282.05;1461742;89;22104;-93
2021/11/01 06:21:39;;;;;;;64.97;37.42;;;;;;;1.63;75.61;100281.95;1426129;91;21662;-93
2021/11/01 06:24:21;;;;;;;73.77;37.00;;;;;;;1.72;75.58;100282.69;1462316;88;21323;-94
2021/11/01 06:26:35;;;;;;;57.47;36.57;;;;;;;1.87;75.46;100277.45;1496318;87;22131;-93
2021/11/01 06:29:05;;;;;;;58.00;37.33;;;;;;;2.05;75.21;100280.70;1469014;87;21693;-88
2021/11/01 06:31:37;;;;;;;52.07;33.17;;;;;;;2.17;75.02;100280.76;1458346;88;21626;-94
2021/11/01 06:34:18;;;;;;;52.20;33.30;;;;;;;2.29;74.97;100284.83;1415173;91;21488;-95
2021/11/01 06:39:44;;;;;;;62.33;39.87;;;;;;;2.61;74.93;100282.27;1474021;88;22994;-90
2021/11/01 06:45:07;;;;;;;;;;;;;;;;;;;;;
2021/11/01 06:50:18;;;;;;;110.07;58.50;;;;;;;3.25;74.73;100286.77;1467707;88;22387;-93
2021/11/01 06:53:12;;;;;;;136.20;67.63;;;;;;;3.43;74.67;100287.31;1474567;88;22786;-92
2021/11/01 06:55:27;;;;;;;139.47;67.10;;;;;;;3.64;74.65;100287.60;1440596;88;21641;-91
2021/11/01 06:58:08;;;;;;;132.13;70.00;;;;;;;3.85;74.66;100288.70;1451533;88;21686;-90
2021/11/01 07:14:42;;;;;;;86.87;46.23;;;;;;;5.54;73.54;100271.83;1387623;94;21984;-93
2021/11/01 07:17:19;;;;;;;77.13;43.87;;;;;;;5.54;73.54;100271.83;1381438;94;21932;-94
2021/11/01 07:22:53;;;;;;;56.07;36.33;;;;;;;6.03;72.88;100268.48;1399639;92;23256;-94
2021/11/01 07:25:24;;;;;;;51.87;34.53;;;;;;;6.18;72.21;100263.80;1399079;93;23210;-93
2021/11/01 07:38:03;;;;;;;62.87;38.23;;;;;;;6.50;71.80;100265.13;1385553;93;22129;-92
2021/11/01 07:38:32;;;;;;;50.87;31.90;;;;;;;6.87;71.08;100264.73;1414623;92;21528;-93
2021/11/01 08:38:51;;;;;;;26.33;19.00;;;;;;;11.06;61.02;100230.98;1319777;100;22053;-92
2021/11/01 08:41:29;;;;;;;65.97;21.70;;;;;;;11.03;60.24;100229.47;1316071;100;22382;-92
2021/11/01 08:49:17;;;;;;;32.20;18.00;;;;;;;11.47;59.40;100221.94;1324095;99;21401;-94
2021/11/01 09:04:31;;;;;;;31.07;18.47;;;;;;;12.36;56.96;100202.00;1278936;97;22264;-93
2021/11/01 09:06:29;;;;;;;29.10;17.47;;;;;;;12.91;56.09;100203.98;1389007;94;21311;-94
2021/11/01 09:10:03;;;;;;;27.70;17.80;;;;;;;13.44;53.23;100198.58;1456840;94;21315;-94
2021/11/01 09:20:13;;;;;;;23.50;16.93;;;;;;;16.04;48.32;100184.98;1384469;94;21356;-90
2021/11/01 09:25:29;;;;;;;24.87;16.53;;;;;;;17.26;46.01;100172.75;1436207;94;21201;-92
2021/11/01 09:28:07;;;;;;;25.77;16.17;;;;;;;17.70;44.80;100174.70;1432409;94;21377;-94
2021/11/01 09:38:28;;;;;;;27.13;16.42;;;;;;;18.79;41.85;100165.13;1302923;96;21433;-94
2021/11/01 09:41:01;;;;;;;62.48;44.83;;;;;;;19.13;41.69;100167.22;1373197;94;21544;-92
2021/11/01 09:43:23;;;;;;;41.85;28.23;;;;;;;18.87;38.76;100162.24;1385460;94;21476;-92
2021/11/01 09:46:00;;;;;;;26.05;17.02;;;;;;;19.11;39.92;100159.92;1377731;94;21502;-91
2021/11/01 09:48:28;;;;;;;17.37;14.33;;;;;;;19.17;39.78;100156.39;1386015;92;21605;-93
2021/11/01 09:50:56;;;;;;;20.97;16.15;;;;;;;18.97;37.26;100158.30;1387978;94;21380;-93
2021/11/01 09:53:37;;;;;;;32.55;17.48;;;;;;;18.94;38.95;100154.99;1386145;94;21459;-91
2021/11/01 10:01:21;;;;;;;25.20;19.15;;;;;;;18.97;38.86;100140.88;1463976;94;21414;-92
2021/11/01 10:03:50;;;;;;;20.32;16.67;;;;;;;18.97;38.86;100140.88;1487401;92;21388;-92
2021/11/01 10:06:23;;;;;;;29.75;16.62;;;;;;;19.04;38.60;100129.59;1434568;92;21321;-91
2021/11/01 10:09:00;;;;;;;17.45;15.65;;;;;;;19.41;37.60;100130.72;1325358;94;21255;-93
2021/11/01 10:11:33;;;;;;;26.82;19.17;;;;;;;19.41;37.60;100130.72;1480539;92;21350;-94
2021/11/01 10:14:05;;;;;;;25.40;18.07;;;;;;;19.79;37.48;100101.25;1428112;92;21447;-93
2021/11/01 10:19:42;;;;;;;19.32;16.17;;;;;;;19.67;37.04;100111.53;1397130;92;22385;-92
2021/11/01 10:22:24;;;;;;;43.40;27.30;;;;;;;19.82;37.14;100106.19;1414087;92;21432;-94
2021/11/01 10:24:56;;;;;;;32.23;17.23;;;;;;;19.94;36.66;100113.03;1406043;92;21438;-94
2021/11/01 10:27:39;;;;;;;21.75;15.23;;;;;;;20.08;36.72;100110.23;1404669;92;21277;-95
2021/11/01 10:30:13;;;;;;;17.55;15.00;;;;;;;20.17;36.05;100105.74;1400556;92;22300;-93
2021/11/01 10:32:50;;;;;;;22.85;15.25;;;;;;;20.00;34.73;100097.92;1412675;92;21308;-91
2021/11/01 10:35:30;;;;;;;21.45;15.95;;;;;;;19.76;34.72;100091.44;1393739;94;21385;-94
2021/11/01 10:41:04;;;;;;;20.27;12.82;;;;;;;20.01;35.95;100084.78;1411376;92;22452;-93
2021/11/01 10:46:48;;;;;;;;;;;;;;;19.27;34.87;100082.98;1389884;94;21395;-96
2021/11/01 11:14:41;;;;;;;24.63;15.72;;;;;;;20.85;34.45;100036.89;1393510;94;21364;-92
2021/11/01 11:23:00;;;;;;;17.32;14.50;;;;;;;20.91;33.73;100025.22;1378756;94;21550;-92
2021/11/01 11:28:11;;;;;;;26.35;15.38;;;;;;;21.06;32.72;100014.92;1393296;94;21371;-94
2021/11/01 11:33:31;;;;;;;24.77;15.83;;;;;;;21.29;33.03;100002.59;1386336;95;21477;-91
2021/11/01 11:50:53;;;;;;;21.50;12.20;;;;;;;21.87;30.91;99995.25;1381150;94;21482;-93
2021/11/01 11:53:24;;;;;;;15.90;11.70;;;;;;;21.77;31.44;99985.56;1375893;94;22494;-94
2021/11/01 11:56:07;;;;;;;14.90;12.30;;;;;;;21.75;30.75;99985.80;1387169;94;21385;-94
2021/11/01 11:58:49;;;;;;;13.53;12.13;;;;;;;21.83;31.49;99981.93;1392717;94;23549;-94
2021/11/01 12:01:35;;;;;;;14.38;11.68;;;;;;;21.92;31.18;99981.88;1398198;92;22333;-95
2021/11/01 12:04:21;;;;;;;16.17;12.63;;;;;;;21.85;31.37;99980.65;1400060;92;22666;-94
2021/11/01 12:07:01;;;;;;;14.85;13.22;;;;;;;22.02;31.48;99978.09;1383174;94;21505;-95
2021/11/01 12:09:44;;;;;;;24.40;13.60;;;;;;;22.06;29.86;99972.52;1349641;95;21438;-94
2021/11/01 12:12:31;;;;;;;15.58;13.08;;;;;;;21.82;30.85;99971.69;1362199;96;21443;-93
2021/11/01 12:17:31;;;;;;;14.75;12.03;;;;;;;22.13;31.17;99967.03;1407689;93;21611;-94
2021/11/01 12:20:07;;;;;;;16.15;12.63;;;;;;;22.26;30.93;99956.55;1387435;93;21462;-94
2021/11/01 12:22:43;;;;;;;15.60;11.50;;;;;;;22.35;29.89;99955.13;1380984;95;22302;-95
2021/11/01 12:25:15;;;;;;;14.93;11.88;;;;;;;22.33;30.64;99953.22;1366362;95;22494;-94
2021/11/01 12:27:49;;;;;;;19.00;12.55;;;;;;;22.50;30.33;99954.13;1359402;96;21482;-94
2021/11/01 12:30:23;;;;;;;14.98;12.40;;;;;;;22.33;30.25;99945.13;1358139;95;21422;-94
2021/11/01 12:32:51;;;;;;;15.08;11.30;;;;;;;22.35;30.44;99940.84;1367984;95;21452;-94
2021/11/01 12:35:30;;;;;;;13.98;12.50;;;;;;;22.29;30.06;99939.91;1373508;95;21370;-94
2021/11/01 12:38:09;;;;;;;21.42;12.28;;;;;;;22.44;30.58;99944.30;1381082;93;21377;-94
2021/11/01 12:59:49;;;;;;;13.48;11.80;;;;;;;22.48;30.07;99935.20;1359562;95;21720;-93
2021/11/01 13:02:30;;;;;;;15.20;11.73;;;;;;;22.68;29.73;99936.15;1389626;94;21389;-93
2021/11/01 13:05:05;;;;;;;17.15;12.47;;;;;;;22.44;29.08;99928.62;1388382;92;21633;-94
2021/11/01 13:10:23;;;;;;;19.82;12.23;;;;;;;22.38;28.65;99926.88;1506017;91;21233;-95
2021/11/01 13:18:22;;;;;;;20.82;12.05;;;;;;;21.78;29.58;99925.23;1412554;91;21424;-95
2021/11/01 13:21:01;;;;;;;22.48;13.30;;;;;;;21.82;30.19;99921.05;1425284;91;21512;-94
2021/11/01 13:23:30;;;;;;;18.65;13.20;;;;;;;21.46;30.09;99920.17;1424963;91;21520;-93
2021/11/01 13:26:06;;;;;;;18.95;15.25;;;;;;;21.35;30.48;99915.58;1400070;93;21747;-93
2021/11/01 13:37:26;;;;;;;17.62;12.35;;;;;;;20.90;30.67;99901.22;1408393;91;22304;-93
2021/11/01 13:40:07;;;;;;;16.00;12.70;;;;;;;20.40;31.19;99891.48;1452623;91;21565;-93
2021/11/01 13:42:35;;;;;;;29.25;13.58;;;;;;;19.91;31.66;99891.06;1506327;91;21251;-93
2021/11/01 13:45:15;;;;;;;17.85;13.32;;;;;;;19.37;32.47;99888.83;1354699;91;21285;-91
2021/11/01 13:47:49;;;;;;;26.15;14.25;;;;;;;18.93;33.63;99879.85;1506312;91;21925;-90
2021/11/01 13:50:21;;;;;;;18.02;13.48;;;;;;;18.38;34.02;99883.47;1370516;91;22342;-90
2021/11/01 13:53:17;;;;;;;17.98;13.68;;;;;;;18.00;34.63;99881.52;1430142;91;21373;-90
2021/11/01 13:55:46;;;;;;;16.87;12.15;;;;;;;17.58;35.65;99878.27;1425863;91;21587;-90
2021/11/01 14:01:06;;;;;;;17.07;12.63;;;;;;;17.05;36.77;99880.89;1413167;91;21453;-91
2021/11/01 14:03:40;;;;;;;21.23;14.40;;;;;;;16.85;36.14;99871.48;1424854;91;21452;-90
2021/11/01 14:11:00;;;;;;;21.00;13.83;;;;;;;16.49;36.98;99874.45;1436603;90;21387;-90
2021/11/01 14:11:32;;;;;;;18.80;12.67;;;;;;;16.31;37.23;99867.47;1436015;90;21424;-91
2021/11/01 14:14:09;;;;;;;16.40;12.67;;;;;;;16.14;37.56;99861.14;1362861;92;21460;-91
2021/11/01 14:19:35;;;;;;;20.93;12.80;;;;;;;15.86;38.44;99854.52;1516988;90;22216;-90
2021/11/01 14:27:51;;;;;;;30.90;17.87;;;;;;;15.17;40.38;99849.86;1519126;90;21378;-90
2021/11/01 14:30:25;;;;;;;44.93;21.40;;;;;;;15.03;40.30;99849.42;1378154;90;22313;-90
2021/11/01 15:10:30;;;;;;;69.20;39.67;;;;;;;12.34;46.29;99829.82;1412157;92;21414;-89
2021/11/01 15:18:08;;;;;;;74.13;37.43;;;;;;;11.95;47.49;99825.36;1391962;93;21415;-89
2021/11/01 15:20:36;;;;;;;69.97;40.10;;;;;;;11.77;47.98;99829.53;1412327;92;23417;-89
2021/11/01 15:23:03;;;;;;;58.13;36.80;;;;;;;11.67;47.69;99824.40;1394847;92;21724;-89
2021/11/01 15:36:28;;;;;;;55.43;34.57;;;;;;;11.07;49.61;99819.50;1416273;92;23121;-88
2021/11/01 16:17:21;;;;;;;63.28;37.93;;;;;;;10.13;51.81;99840.45;1403536;92;21467;-88
2021/11/01 16:19:43;;;;;;;64.80;40.23;;;;;;;9.98;52.42;99838.05;1404183;91;21480;-88
2021/11/01 16:22:15;;;;;;;87.62;48.63;;;;;;;9.89;52.50;99838.02;1404133;92;21651;-88
2021/11/01 16:24:45;;;;;;;97.23;57.57;;;;;;;9.83;52.66;99836.00;1465842;93;21385;-89
2021/11/01 16:27:16;;;;;;;101.47;59.30;;;;;;;9.76;53.09;99834.98;1332858;93;22436;-89
2021/11/01 16:32:22;;;;;;;86.07;50.67;;;;;;;9.59;53.25;99836.70;1482139;92;21326;-88
2021/11/01 16:34:56;;;;;;;80.72;47.67;;;;;;;9.52;53.63;99833.50;1480246;93;21333;-87
2021/11/01 16:39:51;;;;;;;100.77;56.30;;;;;;;9.43;53.78;99832.13;1389648;93;21647;-89
2021/11/01 16:42:28;;;;;;;107.87;68.40;;;;;;;9.34;54.20;99842.30;1403270;92;21562;-89
2021/11/01 16:44:57;;;;;;;145.60;78.57;;;;;;;9.29;54.24;99842.42;1333504;92;21422;-88
2021/11/01 16:47:24;;;;;;;162.97;87.30;;;;;;;9.23;54.38;99841.22;1333371;92;21320;-88
2021/11/01 16:49:51;;;;;;;170.83;82.90;;;;;;;9.18;54.77;99838.23;1461232;93;21407;-89
2021/11/01 16:52:20;;;;;;;131.23;71.13;;;;;;;9.14;54.72;99835.05;1479940;93;22322;-89
2021/11/01 16:54:56;;;;;;;105.00;64.27;;;;;;;9.08;55.31;99836.16;1314101;95;22325;-88
2021/11/01 16:57:28;;;;;;;;;;;;;;;9.07;55.10;99837.97;1479633;92;22756;-89
2021/11/01 17:00:11;;;;;;;93.63;53.53;;;;;;;9.03;56.27;99849.33;1442335;93;20365;-89
2021/11/01 17:29:05;;;;;;;105.27;60.90;;;;;;;8.34;57.51;99838.02;1388449;93;21436;-87
2021/11/01 17:37:15;;;;;;;127.20;75.10;;;;;;;8.10;58.67;99838.08;1411894;92;23280;-87
2021/11/01 18:43:17;;;;;;;99.97;54.47;;;;;;;6.87;64.27;99776.25;1440744;91;22155;-87
2021/11/01 18:51:30;;;;;;;82.23;48.83;;;;;;;6.88;64.82;99758.70;1469708;92;21834;-90
2021/11/01 18:54:17;;;;;;;86.00;47.60;;;;;;;6.88;64.82;99758.70;1380683;92;21478;-88
2021/11/01 18:56:42;;;;;;;89.20;48.80;;;;;;;6.84;65.02;99753.35;1334876;93;21287;-89
2021/11/01 18:59:11;;;;;;;95.37;48.03;;;;;;;6.84;65.02;99753.35;1334426;92;22211;-89
2021/11/01 19:01:42;;;;;;;84.70;45.27;;;;;;;6.87;65.19;99764.91;1357193;92;22248;-87
2021/11/01 19:04:15;;;;;;;72.67;43.63;;;;;;;6.83;65.35;99757.79;1405533;92;22004;-88
2021/11/01 19:06:51;;;;;;;74.53;45.00;;;;;;;6.83;65.35;99757.79;1405068;92;21478;-89
2021/11/01 20:05:23;;;;;;;96.57;52.93;;;;;;;6.28;68.11;99735.99;1407445;92;20290;-89
2021/11/01 20:12:58;;;;;;;65.30;38.57;;;;;;;6.20;68.39;99738.47;1376452;93;22103;-90
2021/11/01 21:25:31;;;;;;;57.53;33.87;;;;;;;6.40;68.43;99691.19;1484300;92;21915;-93
2021/11/01 21:27:58;;;;;;;52.93;32.33;;;;;;;6.32;68.53;99690.06;1462286;92;23022;-90
2021/11/01 21:30:26;;;;;;;65.20;35.63;;;;;;;6.32;68.53;99690.06;1462197;92;21354;-90
2021/11/01 21:32:57;;;;;;;62.40;36.23;;;;;;;6.30;68.75;99685.91;1344206;92;22038;-91
2021/11/01 21:35:29;;;;;;;;;;;;;;;6.28;68.63;99683.44;1320326;96;22146;-91
2021/11/01 21:37:54;;;;;;;55.53;31.33;;;;;;;6.26;68.39;99680.59;1384775;92;20402;-89
2021/11/01 21:40:22;;;;;;;57.70;33.27;;;;;;;6.25;68.35;99685.02;1347734;95;22330;-89
2021/11/01 21:42:51;;;;;;;61.40;34.63;;;;;;;6.23;68.24;99683.02;1389023;94;22295;-92
2021/11/01 21:45:18;;;;;;;64.97;35.17;;;;;;;6.19;68.63;99677.70;1408971;92;22249;-91
2021/11/01 21:47:46;;;;;;;53.77;33.27;;;;;;;6.17;68.30;99678.31;1381325;94;22113;-90
2021/11/01 21:50:15;;;;;;;57.87;36.53;;;;;;;6.14;68.29;99673.33;1382294;94;22130;-89
2021/11/01 21:52:44;;;;;;;64.20;35.57;;;;;;;6.12;68.10;99669.17;1385279;94;22167;-89